Rapid City, SD

12:53 PM MDT on September 01, 2015 (GMT -0600)
RAWS | | Change Station
CLOSE
Current Station
Personal Weather Station
Location: Keystone, SD
Elevation: 4673 ft
Nearby Weather Stations

Elev 4673 ft 43.98 °N, 103.43 °W | Updated 1 hour ago

Clear
Clear
83.0 °F
Feels Like 83.0 °F
N
5.0
Wind Variable Wind from East
Gusts 10.0 mph

Today
High -- | Low -- °F
--% Chance of Precip.
Yesterday
High -- | Low -- °F
Precip. -- in
6:16 AM 7:29 PM
Waning Gibbous, 87% visible
Pressure 29.81 in
Visibility 10.0 miles
Clouds Clear
Dew Point 51.0 °F
Humidity 33%
Rainfall in
Snow Depth Not available.
UV 8 out of 12
Pollen 10.00 out of 12
Air Quality Not available.
Flu Activity Not available.
METAR KRAP 011752Z VRB04KT 10SM CLR 26/16 A2988 RMK AO2 SLP094 6//// T02560161 50004
Pressure 29.81 in
Visibility 10.0 miles
Clouds Clear
Dew Point 51.0 °F
Humidity 33%
Rainfall in
Snow Depth Not available.
UV 8 out of 12
Pollen 10.00 out of 12
Air Quality Not available.
Flu Activity Not available.
METAR KRAP 011752Z VRB04KT 10SM CLR 26/16 A2988 RMK AO2 SLP094 6//// T02560161 50004

10-Day Weather Forecast

×

Almanac

Astronomy

Sep. 01, 2015 Rise Set
Actual Time
Civil Twilight
Nautical Twilight
Astronomical Twilight
Moon
Length of Visible Light
Length of Day
Tomorrow will be .
, % of the Moon is Illuminated

Today's Extremes

State Highs State Lows

Community

WunderPhotos

Upload Photos

1,851,593 photos uploaded!

WunderBlogs® & News

Nearby

Air Quality

  Air Quality AQ Index Pollutant
Not available.

Snow Depth

Station Depth Elevation

Earthquake Activity

City Distance Mag. Time & Date
Minimum magnitude displayed is 2.5.

Coastal Water Temperatures

Place Temperature

Stations

Nearby Weather Stations

Station Location Temp. Windchill Dew Point Humidity Wind Precip. Elev Updated Type